Ana Sayfa
METAR-TAF:

METAR-TAF

Havaalanları :

Yakutsk Havalimanı

Yakutsk, Rusya

Enlem: 62-01N, Boylam: 129-43E, yükseklik: 103 m

Güncel hava durumu gözlemi

Rapor saat 05:00 UTC de 24 dakika önce yapıldı.
Rüzgar güney/güneybatıdan 6 kt, güney/güneydoğu ve güneybatı arasında değişken
Sıcaklık 15°C
Nem 39%
Basınç 1012 hPa
Görüş mesafesi 10 km veya daha fazla
1500 m altında bulut yok ve kümülonimbus yok

METAR: UEEE 250500Z 20003MPS 160V230 CAVOK 15/01 Q1012 R23L/09//60 NOSIG RMK QFE750

Saat: 14:24 (05:24 UTC)

Tahmin

Rapor saat 02:00 UTC de 3 saat ve 24 dakika önce yapıldı.
Ayın 25'si saat 03 UTC'den ayın 26'si saat 09 UTC'ye kadar geçerli Tahmin
Rüzgar güneydan 6 kt
Görüş mesafesi 10 km veya daha fazla
1500 m altında bulut yok ve kümülonimbus yok

TAF: UEEE 250200Z 2503/2609 19003MPS CAVOK

4.000'den fazla havaalanı için hava durumu gözlemleri ve tahminleri (METAR ve TAF raporları).

Kullanılabilir istasyonlar harita üzerinde sarı ve kırmızı noktalarla gösterilir.

İstasyonun adını görmek için fareyi noktanın üzerinde gezdirin.

Sonrasında hava gözlem ve tahminlerini görmek için tıklayın.

Haritayı değiştirmek için: yaklaştırmak için siyah artı işaretli yeşil düğmeye ve uzaklaştırmak için de eksi işaretli düğmeye hızla tıklayın; bitişik haritalar için yeşil okları kullanın.


METAR-TAF: